Time;durP1;ratioP1;P1;durP2;ratioP2;P2;SDS_P1;SDS_P2;PMS_P1;PMS_P2;Temp;Humidity;BMP_temperature;BMP_pressure;BME280_temperature;BME280_humidity;BME280_pressure;Samples;Min_cycle;Max_cycle;Signal;HPM_P1;HPM_P2
2023/03/28 00:01:03;;;;;;;14.03;2.20;;;4.30;99.90;;;;;;5076612;28;20090;-81
2023/03/28 00:03:34;;;;;;;15.05;2.63;;;4.30;99.90;;;;;;5093430;28;20082;-81
2023/03/28 00:06:00;;;;;;;16.83;2.58;;;4.40;99.90;;;;;;5093445;28;20467;-81
2023/03/28 00:08:27;;;;;;;17.60;3.78;;;4.40;99.90;;;;;;5093566;28;20109;-81
2023/03/28 00:11:10;;;;;;;15.43;2.60;;;4.30;99.90;;;;;;5076547;28;20485;-81
2023/03/28 00:13:36;;;;;;;19.35;2.50;;;4.30;99.90;;;;;;5092745;28;20473;-81
2023/03/28 00:16:11;;;;;;;16.92;2.30;;;4.30;99.90;;;;;;5093175;28;20044;-81
2023/03/28 00:18:37;;;;;;;15.45;2.47;;;4.30;99.90;;;;;;5094117;28;20510;-81
2023/03/28 00:21:18;;;;;;;13.35;2.10;;;4.30;99.90;;;;;;5093074;28;20083;-81
2023/03/28 00:23:44;;;;;;;14.82;2.40;;;4.20;99.90;;;;;;5076321;28;20052;-81
2023/03/28 00:26:11;;;;;;;15.45;3.20;;;4.10;99.90;;;;;;5076293;28;20052;-81
2023/03/28 00:28:38;;;;;;;15.75;2.10;;;4.10;99.90;;;;;;5076312;28;20135;-81
2023/03/28 00:31:05;;;;;;;11.45;2.30;;;4.10;99.90;;;;;;5092761;28;20089;-81
2023/03/28 00:33:31;;;;;;;14.95;2.80;;;4.00;99.90;;;;;;5093084;28;20070;-81
2023/03/28 00:35:57;;;;;;;11.67;2.40;;;3.90;99.90;;;;;;5092763;28;20048;-81
2023/03/28 00:38:23;;;;;;;12.43;2.50;;;3.90;99.90;;;;;;5092953;28;20047;-80
2023/03/28 00:40:48;;;;;;;13.50;2.00;;;3.90;99.90;;;;;;5092424;28;20480;-81
2023/03/28 00:43:14;;;;;;;14.70;2.37;;;3.80;99.90;;;;;;5076416;28;20076;-80
2023/03/28 00:45:41;;;;;;;11.37;2.67;;;3.80;99.90;;;;;;5076096;28;20070;-80
2023/03/28 00:48:12;;;;;;;14.93;2.35;;;3.80;99.90;;;;;;5092579;28;20044;-80
2023/03/28 00:50:47;;;;;;;15.90;2.22;;;3.80;99.90;;;;;;5092621;28;20043;-79
2023/03/28 00:53:18;;;;;;;16.05;3.58;;;3.80;99.90;;;;;;5075589;28;20497;-81
2023/03/28 00:56:10;;;;;;;13.70;2.05;;;3.70;99.90;;;;;;5092728;28;20047;-80
2023/03/28 00:58:41;;;;;;;12.80;2.63;;;3.80;99.90;;;;;;5092613;28;20507;-80
2023/03/28 01:01:10;;;;;;;14.60;2.40;;;3.80;99.90;;;;;;5092355;28;20044;-81
2023/03/28 01:03:40;;;;;;;15.73;3.17;;;3.70;99.90;;;;;;5075634;28;20452;-80
2023/03/28 01:06:08;;;;;;;11.13;2.15;;;3.70;99.90;;;;;;5059575;28;20479;-80
2023/03/28 01:08:37;;;;;;;12.80;2.38;;;3.60;99.90;;;;;;5092218;28;20553;-80
2023/03/28 01:11:05;;;;;;;14.93;2.83;;;3.60;99.90;;;;;;5093063;28;20051;-80
2023/03/28 01:13:33;;;;;;;16.17;2.75;;;3.60;99.90;;;;;;5091927;28;20055;-80
2023/03/28 01:16:01;;;;;;;13.15;2.85;;;3.60;99.90;;;;;;5075233;28;20481;-80
2023/03/28 01:18:29;;;;;;;10.23;2.30;;;3.50;99.90;;;;;;5092280;28;20047;-80
2023/03/28 01:21:00;;;;;;;21.67;2.92;;;3.40;99.90;;;;;;5091782;28;20143;-80
2023/03/28 01:23:54;;;;;;;14.75;2.90;;;3.50;99.90;;;;;;5075171;28;20108;-80
2023/03/28 01:26:39;;;;;;;11.57;2.15;;;3.40;99.90;;;;;;5092414;28;20054;-80
2023/03/28 01:29:37;;;;;;;14.75;2.97;;;3.40;99.90;;;;;;5075159;28;20059;-81
2023/03/28 01:32:38;;;;;;;18.88;2.20;;;3.40;99.90;;;;;;5091677;28;20063;-81
2023/03/28 01:35:25;;;;;;;14.40;2.20;;;3.40;99.90;;;;;;5069000;28;20064;-81
2023/03/28 01:38:00;;;;;;;16.42;2.97;;;3.30;99.90;;;;;;5075317;28;20201;-80
2023/03/28 01:40:48;;;;;;;14.15;2.63;;;3.40;99.90;;;;;;5075337;28;20147;-81
2023/03/28 01:43:31;;;;;;;12.40;2.67;;;3.40;99.90;;;;;;5091827;28;20044;-81
2023/03/28 01:46:04;;;;;;;17.00;2.42;;;3.40;99.90;;;;;;5091919;28;20044;-81
2023/03/28 01:48:48;;;;;;;12.02;1.90;;;3.30;99.90;;;;;;5075206;28;20056;-81
2023/03/28 01:51:17;;;;;;;13.10;2.35;;;3.30;99.90;;;;;;5074711;28;20048;-81
2023/03/28 01:53:50;;;;;;;11.68;2.30;;;3.20;99.90;;;;;;5091994;28;20040;-81
2023/03/28 01:56:58;;;;;;;16.85;2.80;;;3.30;99.90;;;;;;5091820;28;20404;-80
2023/03/28 01:59:36;;;;;;;13.15;2.05;;;3.20;99.90;;;;;;4994474;28;20050;-80
2023/03/28 02:02:16;;;;;;;12.95;2.60;;;3.20;99.90;;;;;;5085837;28;20535;-81
2023/03/28 02:04:44;;;;;;;10.13;1.75;;;3.20;99.90;;;;;;5091940;28;20484;-81
2023/03/28 02:07:11;;;;;;;13.02;2.15;;;3.10;99.90;;;;;;5091625;28;20047;-81
2023/03/28 02:09:41;;;;;;;10.57;3.22;;;3.10;99.90;;;;;;5074927;28;20081;-81
2023/03/28 02:12:14;;;;;;;15.52;2.53;;;3.10;99.90;;;;;;5074235;28;20143;-81
2023/03/28 02:14:42;;;;;;;9.15;1.80;;;3.10;99.90;;;;;;5091948;28;20044;-81
2023/03/28 02:17:14;;;;;;;11.50;2.30;;;3.00;99.90;;;;;;5091284;28;20044;-81
2023/03/28 02:19:45;;;;;;;12.05;2.50;;;3.00;99.90;;;;;;5091655;28;20492;-81
2023/03/28 02:22:35;;;;;;;11.18;1.95;;;3.00;99.90;;;;;;5091579;28;20044;-81
2023/03/28 02:25:01;;;;;;;9.70;1.67;;;2.90;99.90;;;;;;5073570;28;20056;-82
2023/03/28 02:27:27;;;;;;;11.90;2.20;;;2.80;99.90;;;;;;5075022;28;20048;-81
2023/03/28 02:29:53;;;;;;;13.98;2.78;;;2.70;99.90;;;;;;5074865;28;20056;-80
2023/03/28 02:32:20;;;;;;;14.38;2.30;;;2.80;99.90;;;;;;5091084;28;20097;-80
2023/03/28 02:34:48;;;;;;;18.45;2.40;;;2.60;99.90;;;;;;5091610;28;20052;-80
2023/03/28 02:37:31;;;;;;;12.77;2.30;;;2.70;99.90;;;;;;5091101;28;20056;-80
2023/03/28 02:40:22;;;;;;;13.20;2.28;;;2.70;99.90;;;;;;5074976;28;20052;-80
2023/03/28 02:43:15;;;;;;;11.55;2.42;;;2.70;99.90;;;;;;5091399;28;20040;-81
2023/03/28 02:45:55;;;;;;;10.57;1.98;;;2.70;99.90;;;;;;5091827;28;20059;-81
2023/03/28 02:48:38;;;;;;;8.02;1.73;;;2.70;99.90;;;;;;5094846;28;20048;-81
2023/03/28 02:51:13;;;;;;;11.80;1.95;;;2.70;99.90;;;;;;5094912;28;20082;-81
2023/03/28 02:53:56;;;;;;;8.63;1.75;;;2.70;99.90;;;;;;5094972;28;20048;-81
2023/03/28 02:57:01;;;;;;;9.98;2.20;;;2.70;99.90;;;;;;5094682;28;20110;-81
2023/03/28 02:59:37;;;;;;;14.20;2.33;;;2.70;99.90;;;;;;5094636;28;20051;-80
2023/03/28 03:02:03;;;;;;;11.88;2.38;;;2.70;99.90;;;;;;5094957;28;20129;-80
2023/03/28 03:04:29;;;;;;;15.43;2.05;;;2.60;99.90;;;;;;5094463;28;20406;-80
2023/03/28 03:06:55;;;;;;;11.03;2.63;;;2.60;99.90;;;;;;5077812;28;20123;-80
2023/03/28 03:09:21;;;;;;;13.10;2.37;;;2.60;99.90;;;;;;5094391;28;20051;-81
2023/03/28 03:11:48;;;;;;;18.02;2.20;;;2.60;99.90;;;;;;5094138;28;20055;-81
2023/03/28 03:14:14;;;;;;;11.10;1.80;;;2.50;99.90;;;;;;5094286;28;20059;-81
2023/03/28 03:16:41;;;;;;;10.20;2.00;;;2.50;99.90;;;;;;5077741;28;20048;-80
2023/03/28 03:19:07;;;;;;;11.65;2.00;;;2.60;99.90;;;;;;5061200;28;20039;-82
2023/03/28 03:21:35;;;;;;;15.23;3.10;;;2.60;99.90;;;;;;5061039;28;20380;-80
2023/03/28 03:24:01;;;;;;;12.95;3.08;;;2.50;99.90;;;;;;5060816;28;20509;-80
2023/03/28 03:26:27;;;;;;;11.32;2.50;;;2.50;99.90;;;;;;5094123;28;20095;-81
2023/03/28 03:28:54;;;;;;;13.87;2.60;;;2.50;99.90;;;;;;5077342;28;20200;-80
2023/03/28 03:31:20;;;;;;;15.40;2.58;;;2.50;99.90;;;;;;5093652;28;20079;-80
2023/03/28 03:33:46;;;;;;;11.25;2.30;;;2.50;99.90;;;;;;5077389;28;20056;-80
2023/03/28 03:36:12;;;;;;;15.18;2.30;;;2.50;99.90;;;;;;5077098;28;20048;-80
2023/03/28 03:38:38;;;;;;;13.53;2.60;;;2.60;99.90;;;;;;5077255;28;20513;-80
2023/03/28 03:41:04;;;;;;;17.58;2.38;;;2.60;99.90;;;;;;5077145;28;20052;-80
2023/03/28 03:43:30;;;;;;;13.93;2.53;;;2.60;99.90;;;;;;5076807;28;20056;-80
2023/03/28 03:45:56;;;;;;;11.70;2.93;;;2.60;99.90;;;;;;5076958;28;20058;-80
2023/03/28 03:48:22;;;;;;;9.52;2.20;;;2.60;99.90;;;;;;5093672;28;20505;-81
2023/03/28 03:50:48;;;;;;;15.02;2.38;;;2.50;99.90;;;;;;5076957;28;20071;-80
2023/03/28 03:53:14;;;;;;;11.13;2.60;;;2.50;99.90;;;;;;5076612;28;20079;-81
2023/03/28 03:55:40;;;;;;;13.65;2.83;;;2.50;99.90;;;;;;5093761;28;20056;-80
2023/03/28 03:58:06;;;;;;;18.07;2.43;;;2.60;99.90;;;;;;5076415;28;20047;-81
2023/03/28 04:00:32;;;;;;;13.82;2.53;;;2.50;99.90;;;;;;5093380;28;20127;-81
2023/03/28 04:02:58;;;;;;;13.53;2.07;;;2.50;99.90;;;;;;5076647;28;20151;-80
2023/03/28 04:05:24;;;;;;;15.73;2.53;;;2.40;99.90;;;;;;5076480;28;20040;-81
2023/03/28 04:07:50;;;;;;;16.80;2.78;;;2.40;99.90;;;;;;5093532;28;20492;-80
2023/03/28 04:10:16;;;;;;;16.00;2.37;;;2.50;99.90;;;;;;5093209;28;20086;-80
2023/03/28 04:12:41;;;;;;;14.33;2.10;;;2.40;99.90;;;;;;5093151;28;20399;-79
2023/03/28 04:15:08;;;;;;;14.60;2.80;;;2.40;99.90;;;;;;5093333;28;20110;-79
2023/03/28 04:17:34;;;;;;;19.20;3.53;;;2.40;99.90;;;;;;5059767;28;20048;-79
2023/03/28 04:20:06;;;;;;;13.95;2.75;;;2.40;99.90;;;;;;5093376;28;20140;-79
2023/03/28 04:22:34;;;;;;;10.30;2.20;;;2.40;99.90;;;;;;5093059;28;20041;-80
2023/03/28 04:25:00;;;;;;;13.50;2.53;;;2.40;99.90;;;;;;5093226;28;20113;-79
2023/03/28 04:27:30;;;;;;;13.47;2.20;;;2.30;99.90;;;;;;5092839;28;20040;-80
2023/03/28 04:29:56;;;;;;;11.32;2.10;;;2.30;99.90;;;;;;5060213;28;20144;-80
2023/03/28 04:32:23;;;;;;;13.25;2.47;;;2.40;99.90;;;;;;5092440;28;20525;-80
2023/03/28 04:34:49;;;;;;;14.50;3.05;;;2.30;99.90;;;;;;5092935;28;20050;-80
2023/03/28 04:37:16;;;;;;;10.75;2.30;;;2.30;99.90;;;;;;5092598;28;20049;-79
2023/03/28 04:39:45;;;;;;;15.27;2.78;;;2.30;99.90;;;;;;5092719;28;20484;-80
2023/03/28 04:42:12;;;;;;;8.32;1.75;;;2.30;99.90;;;;;;5092899;28;20083;-80
2023/03/28 04:44:38;;;;;;;15.48;3.13;;;2.30;99.90;;;;;;5075621;28;20362;-80
2023/03/28 04:47:07;;;;;;;12.10;2.40;;;2.40;99.90;;;;;;5075906;28;20515;-80
2023/03/28 04:49:33;;;;;;;12.77;2.28;;;2.40;99.90;;;;;;5075306;28;20044;-80
2023/03/28 04:51:59;;;;;;;11.00;2.40;;;2.40;99.90;;;;;;5092472;28;20482;-80
2023/03/28 04:54:25;;;;;;;13.17;2.03;;;2.40;99.90;;;;;;5093412;28;20129;-80
2023/03/28 04:56:52;;;;;;;16.10;2.50;;;2.40;99.90;;;;;;5093851;28;20086;-80
2023/03/28 04:59:18;;;;;;;18.10;3.15;;;2.50;99.90;;;;;;5092636;28;20052;-80
2023/03/28 05:01:48;;;;;;;12.82;2.47;;;2.50;99.90;;;;;;5093299;28;20040;-81
2023/03/28 05:04:17;;;;;;;14.35;2.75;;;2.50;99.90;;;;;;5076366;28;20123;-79
2023/03/28 05:06:45;;;;;;;11.13;2.55;;;2.60;99.90;;;;;;5092185;28;20051;-80
2023/03/28 05:09:11;;;;;;;10.68;2.92;;;2.60;99.90;;;;;;5074847;28;20090;-79
2023/03/28 05:11:38;;;;;;;13.07;2.45;;;2.70;99.90;;;;;;5092035;28;20083;-80
2023/03/28 05:14:04;;;;;;;11.18;2.05;;;2.60;99.90;;;;;;5075745;28;20055;-80
2023/03/28 05:16:29;;;;;;;17.67;2.50;;;2.60;99.90;;;;;;5091847;28;20561;-80
2023/03/28 05:18:55;;;;;;;15.07;2.70;;;2.60;99.90;;;;;;5075534;28;20071;-80
2023/03/28 05:21:21;;;;;;;15.68;2.67;;;2.50;99.90;;;;;;5075656;28;20044;-79
2023/03/28 05:23:47;;;;;;;12.80;2.73;;;2.60;99.90;;;;;;5058548;28;20093;-79
2023/03/28 05:26:13;;;;;;;12.50;2.30;;;2.60;99.90;;;;;;5092189;28;20051;-79
2023/03/28 05:28:39;;;;;;;11.33;2.83;;;2.60;99.90;;;;;;5058493;28;20040;-79
2023/03/28 05:31:06;;;;;;;14.23;3.10;;;2.60;99.90;;;;;;5092107;28;20161;-80
2023/03/28 05:33:33;;;;;;;11.38;2.63;;;2.60;99.90;;;;;;5075093;28;20105;-79
2023/03/28 05:36:01;;;;;;;10.68;2.10;;;2.50;99.90;;;;;;5075403;28;20082;-79
2023/03/28 05:38:30;;;;;;;13.15;2.40;;;2.60;99.90;;;;;;5091665;28;20094;-80
2023/03/28 05:40:57;;;;;;;12.32;3.42;;;2.50;99.90;;;;;;5075007;28;20146;-79
2023/03/28 05:43:23;;;;;;;10.68;2.10;;;2.50;99.90;;;;;;5091802;28;20059;-80
2023/03/28 05:45:49;;;;;;;15.73;2.47;;;2.60;99.90;;;;;;5091729;28;20048;-79
2023/03/28 05:48:15;;;;;;;13.93;2.77;;;2.60;99.90;;;;;;5075106;28;20044;-79
2023/03/28 05:50:41;;;;;;;10.50;2.40;;;2.50;99.90;;;;;;5057948;28;20048;-79
2023/03/28 05:53:07;;;;;;;13.25;2.75;;;2.50;99.90;;;;;;5091934;28;20464;-79
2023/03/28 05:55:33;;;;;;;13.10;2.83;;;2.50;99.90;;;;;;5091644;28;20043;-80
2023/03/28 05:57:59;;;;;;;12.45;2.58;;;2.50;99.90;;;;;;5091965;28;20044;-80
2023/03/28 06:00:25;;;;;;;11.30;3.07;;;2.60;99.90;;;;;;5091576;28;20048;-80
2023/03/28 06:02:53;;;;;;;12.18;2.70;;;2.60;99.90;;;;;;5091542;28;20048;-80
2023/03/28 06:05:19;;;;;;;12.88;3.45;;;2.70;99.90;;;;;;5091664;28;20055;-80
2023/03/28 06:07:45;;;;;;;13.70;2.75;;;2.80;99.90;;;;;;5091600;28;20134;-79
2023/03/28 06:10:13;;;;;;;13.37;2.53;;;2.90;99.90;;;;;;5091411;28;20463;-80
2023/03/28 06:12:39;;;;;;;12.60;2.53;;;3.10;99.90;;;;;;5090592;28;20067;-80
2023/03/28 06:15:06;;;;;;;14.70;2.67;;;3.30;99.90;;;;;;5091645;28;20050;-80
2023/03/28 06:17:32;;;;;;;13.38;3.05;;;3.40;99.90;;;;;;5091391;28;20084;-81
2023/03/28 06:19:58;;;;;;;14.57;2.43;;;3.50;99.90;;;;;;5093248;28;20079;-80
2023/03/28 06:22:24;;;;;;;11.70;2.80;;;3.60;99.90;;;;;;5062095;28;20036;-80
2023/03/28 06:24:50;;;;;;;11.03;2.80;;;3.70;99.90;;;;;;5095199;28;20051;-81
2023/03/28 06:27:15;;;;;;;15.23;3.20;;;3.70;99.90;;;;;;5095502;28;20079;-81
2023/03/28 06:29:41;;;;;;;12.97;2.60;;;3.80;99.90;;;;;;5061707;28;20190;-81
2023/03/28 06:32:07;;;;;;;10.67;2.90;;;3.80;99.90;;;;;;5095505;28;20040;-81
2023/03/28 06:34:32;;;;;;;11.03;2.70;;;3.80;99.90;;;;;;5094995;28;20500;-82
2023/03/28 06:36:59;;;;;;;13.87;3.00;;;3.90;99.90;;;;;;5095294;28;20036;-82
2023/03/28 06:39:25;;;;;;;14.00;3.03;;;3.90;99.90;;;;;;5095299;28;20491;-82
2023/03/28 06:41:51;;;;;;;11.07;2.13;;;3.90;99.90;;;;;;5094585;28;20131;-82
2023/03/28 06:44:16;;;;;;;8.60;2.37;;;4.00;99.90;;;;;;5096121;28;20105;-81
2023/03/28 06:46:42;;;;;;;11.53;2.10;;;4.00;99.90;;;;;;5094737;28;20495;-82
2023/03/28 06:49:08;;;;;;;9.40;2.50;;;4.10;99.90;;;;;;5095322;28;20048;-82
2023/03/28 06:51:34;;;;;;;8.70;2.53;;;4.10;99.90;;;;;;5094543;28;20563;-82
2023/03/28 06:54:00;;;;;;;9.60;2.10;;;4.10;99.90;;;;;;5095232;28;20048;-82
2023/03/28 06:56:26;;;;;;;10.77;2.10;;;4.20;99.90;;;;;;5061361;28;20145;-82
2023/03/28 06:58:52;;;;;;;9.32;1.98;;;4.30;99.90;;;;;;5094567;28;20475;-82
2023/03/28 07:01:18;;;;;;;8.40;1.93;;;4.30;99.90;;;;;;5077605;28;20079;-82
2023/03/28 07:03:44;;;;;;;11.00;2.10;;;4.50;99.90;;;;;;5094502;28;20054;-81
2023/03/28 07:06:10;;;;;;;10.87;2.10;;;4.60;99.90;;;;;;5094940;28;20040;-80
2023/03/28 07:08:36;;;;;;;12.02;3.08;;;4.70;99.90;;;;;;5061048;28;20051;-82
2023/03/28 07:11:03;;;;;;;12.68;2.75;;;4.80;99.90;;;;;;5077665;28;20135;-81
2023/03/28 07:13:28;;;;;;;11.02;2.75;;;5.10;99.90;;;;;;5093520;28;20131;-81
2023/03/28 07:16:10;;;;;;;9.53;2.43;;;5.50;99.90;;;;;;5093712;28;20478;-82
2023/03/28 07:18:37;;;;;;;13.82;2.95;;;5.70;99.90;;;;;;5094696;28;20126;-81
2023/03/28 07:21:08;;;;;;;14.35;3.42;;;5.80;99.90;;;;;;5077817;28;20082;-81
2023/03/28 07:23:34;;;;;;;10.10;2.83;;;5.80;99.90;;;;;;5094493;28;20044;-80
2023/03/28 07:26:00;;;;;;;13.23;2.97;;;5.90;99.90;;;;;;5093885;28;20267;-81
2023/03/28 07:28:26;;;;;;;12.03;2.43;;;5.90;99.90;;;;;;5094268;28;20388;-81
2023/03/28 07:30:55;;;;;;;11.75;2.33;;;5.90;99.90;;;;;;5093565;28;20044;-81
2023/03/28 07:33:21;;;;;;;8.55;2.85;;;5.90;99.90;;;;;;5093327;28;20530;-81
2023/03/28 07:35:46;;;;;;;10.67;2.20;;;5.90;99.90;;;;;;5077236;28;20052;-81
2023/03/28 07:38:12;;;;;;;9.67;2.20;;;6.20;99.90;;;;;;5094140;28;20458;-81
2023/03/28 07:40:38;;;;;;;12.57;2.45;;;7.10;99.90;;;;;;5095012;28;20052;-81
2023/03/28 07:43:04;;;;;;;12.77;3.07;;;8.40;99.90;;;;;;5093777;28;20177;-84
2023/03/28 07:45:30;;;;;;;11.83;2.63;;;9.50;99.90;;;;;;5093703;28;20105;-81
2023/03/28 07:47:56;;;;;;;9.38;3.03;;;10.00;99.90;;;;;;5094651;28;20044;-81
2023/03/28 07:50:22;;;;;;;12.10;3.23;;;10.10;99.90;;;;;;5093897;28;20055;-80
2023/03/28 07:52:48;;;;;;;8.95;2.40;;;10.00;99.90;;;;;;5093272;28;20075;-82
2023/03/28 07:55:14;;;;;;;8.60;2.30;;;9.80;99.90;;;;;;5076933;28;20140;-81
2023/03/28 07:57:40;;;;;;;11.40;2.30;;;9.60;99.90;;;;;;5076884;28;20204;-81
2023/03/28 08:00:11;;;;;;;12.73;3.35;;;9.50;99.90;;;;;;5060052;28;20048;-81
2023/03/28 08:02:39;;;;;;;11.60;3.07;;;9.40;99.90;;;;;;5093490;28;20400;-80
2023/03/28 08:05:05;;;;;;;22.73;3.07;;;9.40;99.90;;;;;;5094321;28;20411;-81
2023/03/28 08:07:32;;;;;;;8.03;1.97;;;9.50;99.90;;;;;;5093549;28;20372;-83
2023/03/28 08:09:59;;;;;;;9.50;1.80;;;9.40;99.90;;;;;;5093932;28;20761;-83
2023/03/28 08:12:25;;;;;;;7.37;1.40;;;9.40;99.90;;;;;;5094194;28;20778;-82
2023/03/28 08:14:51;;;;;;;5.10;1.10;;;9.30;99.90;;;;;;5092376;28;20849;-82
2023/03/28 08:17:17;;;;;;;5.30;1.20;;;9.30;99.90;;;;;;5093336;28;20294;-82
2023/03/28 08:19:43;;;;;;;6.67;1.50;;;9.20;99.90;;;;;;5094326;28;20630;-82
2023/03/28 08:22:11;;;;;;;7.43;1.37;;;9.20;99.90;;;;;;5094265;28;20109;-83
2023/03/28 08:24:37;;;;;;;4.33;1.13;;;9.20;99.90;;;;;;5076171;28;20762;-83
2023/03/28 08:27:03;;;;;;;5.47;1.20;;;9.20;99.90;;;;;;5092894;28;20294;-79
2023/03/28 08:29:31;;;;;;;6.67;1.40;;;9.30;99.90;;;;;;5093813;28;20766;-83
2023/03/28 08:31:57;;;;;;;4.63;1.00;;;9.30;99.90;;;;;;5093725;28;20758;-83
2023/03/28 08:34:23;;;;;;;7.93;1.90;;;9.30;99.90;;;;;;5093008;28;20294;-79
2023/03/28 08:36:48;;;;;;;5.33;0.90;;;9.20;99.90;;;;;;5093839;28;20286;-82
2023/03/28 08:39:14;;;;;;;6.27;1.37;;;9.10;99.80;;;;;;5092931;28;20686;-80
2023/03/28 08:42:05;;;;;;;7.97;1.50;;;9.00;99.90;;;;;;5092640;28;20051;-79
2023/03/28 08:44:43;;;;;;;6.10;1.43;;;8.90;97.50;;;;;;5093618;28;20499;-79
2023/03/28 08:47:31;;;;;;;11.37;1.43;;;8.80;99.00;;;;;;5093645;28;20278;-78
2023/03/28 08:50:00;;;;;;;5.33;1.20;;;8.80;97.40;;;;;;5092997;28;20290;-80
2023/03/28 08:52:27;;;;;;;6.13;1.38;;;8.70;97.20;;;;;;5093634;28;20298;-79
2023/03/28 08:55:22;;;;;;;3.87;1.10;;;8.50;96.10;;;;;;5092265;28;20048;-81
2023/03/28 08:57:52;;;;;;;7.15;1.38;;;8.50;94.80;;;;;;5093499;28;20274;-81
2023/03/28 09:00:26;;;;;;;4.80;1.17;;;8.40;95.20;;;;;;5092744;28;20036;-80
2023/03/28 09:02:52;;;;;;;5.43;1.77;;;8.30;95.00;;;;;;5093365;28;20279;-80
2023/03/28 09:06:02;;;;;;;9.50;1.50;;;8.20;95.70;;;;;;5075753;28;20622;-80
2023/03/28 09:08:49;;;;;;;5.93;1.10;;;8.10;94.80;;;;;;5073415;28;20056;-82
2023/03/28 09:11:37;;;;;;;5.15;1.40;;;8.10;93.80;;;;;;5093217;28;20036;-81
2023/03/28 09:14:04;;;;;;;8.70;1.33;;;8.10;94.90;;;;;;5092798;28;20142;-81
2023/03/28 09:16:38;;;;;;;8.27;1.10;;;8.10;94.60;;;;;;5093114;28;20142;-79
2023/03/28 09:19:34;;;;;;;5.80;1.35;;;8.10;94.40;;;;;;5093159;28;20158;-79
2023/03/28 09:22:09;;;;;;;;;;;8.20;94.60;;;;;;5093537;28;20044;-78
2023/03/28 09:25:03;;;;;;;4.82;1.30;;;8.30;93.10;;;;;;5092945;28;20394;-78
2023/03/28 09:27:36;;;;;;;5.77;1.10;;;8.30;94.20;;;;;;5051827;28;20056;-78
2023/03/28 09:30:20;;;;;;;4.88;1.55;;;8.30;94.50;;;;;;5093005;28;20282;-79
2023/03/28 09:32:48;;;;;;;5.43;2.17;;;8.30;93.80;;;;;;5092188;28;20052;-79
2023/03/28 09:35:20;;;;;;;5.75;1.48;;;8.30;94.60;;;;;;5093022;28;20274;-80
2023/03/28 09:38:21;;;;;;;7.75;1.70;;;8.40;93.80;;;;;;5093211;28;20052;-80
2023/03/28 09:40:48;;;;;;;7.38;1.67;;;8.50;93.30;;;;;;5049882;28;20052;-78
2023/03/28 09:43:26;;;;;;;8.48;1.65;;;8.50;94.20;;;;;;5091978;28;20048;-80
2023/03/28 09:46:07;;;;;;;9.05;1.60;;;8.60;93.70;;;;;;5093169;28;20119;-76
2023/03/28 09:48:37;;;;;;;7.43;1.88;;;8.60;93.60;;;;;;5093241;28;20044;-77
2023/03/28 09:51:05;;;;;;;6.15;1.55;;;8.60;93.30;;;;;;5092901;28;20044;-82
2023/03/28 09:53:34;;;;;;;6.27;1.63;;;8.70;93.10;;;;;;5092727;28;20048;-74
2023/03/28 09:56:16;;;;;;;8.98;1.80;;;8.70;93.50;;;;;;5094761;28;20286;-80
2023/03/28 09:58:54;;;;;;;7.73;1.50;;;8.80;93.80;;;;;;5095592;28;20048;-80
2023/03/28 10:01:25;;;;;;;7.38;1.60;;;8.90;93.30;;;;;;5094420;28;20334;-80
2023/03/28 10:03:53;;;;;;;5.83;2.13;;;8.90;93.70;;;;;;5096959;28;20055;-80
2023/03/28 10:06:26;;;;;;;8.10;2.30;;;9.00;93.80;;;;;;5096673;28;20317;-79
2023/03/28 10:09:07;;;;;;;11.40;2.83;;;9.10;93.80;;;;;;5096984;28;20289;-80
2023/03/28 10:11:46;;;;;;;7.63;2.37;;;9.10;94.00;;;;;;5095764;28;20302;-79
2023/03/28 10:14:46;;;;;;;10.53;2.30;;;9.10;93.40;;;;;;5096322;28;20734;-80
2023/03/28 10:17:24;;;;;;;6.00;2.10;;;9.10;92.80;;;;;;5042271;28;20385;-80
2023/03/28 10:19:51;;;;;;;8.97;2.10;;;9.10;93.90;;;;;;5096712;28;20777;-79
2023/03/28 10:22:29;;;;;;;8.93;2.37;;;9.10;93.80;;;;;;5095464;28;20341;-80
2023/03/28 10:24:55;;;;;;;8.23;2.03;;;9.10;93.90;;;;;;5096687;28;20277;-80
2023/03/28 10:27:26;;;;;;;8.40;2.37;;;9.00;94.30;;;;;;5078353;28;20290;-80
2023/03/28 10:29:55;;;;;;;7.70;2.20;;;9.10;94.30;;;;;;5096587;28;20270;-79
2023/03/28 10:32:29;;;;;;;7.53;2.00;;;9.10;94.50;;;;;;5096010;28;20305;-80
2023/03/28 10:35:08;;;;;;;10.50;2.73;;;9.10;94.20;;;;;;5096434;28;20345;-79
2023/03/28 10:37:35;;;;;;;9.67;2.67;;;9.10;94.50;;;;;;5095404;28;20844;-80
2023/03/28 10:40:05;;;;;;;10.80;2.10;;;9.10;94.40;;;;;;5096419;28;20335;-79
2023/03/28 10:42:42;;;;;;;8.33;1.87;;;9.10;93.80;;;;;;5096564;28;20279;-79
2023/03/28 10:45:25;;;;;;;6.07;2.17;;;9.10;93.30;;;;;;5096060;28;20310;-79
2023/03/28 10:47:55;;;;;;;12.87;2.07;;;9.10;93.30;;;;;;5096402;28;20358;-79
2023/03/28 10:50:45;;;;;;;6.70;2.27;;;9.10;93.10;;;;;;5095948;28;20278;-79
2023/03/28 10:53:26;;;;;;;8.57;2.20;;;9.20;92.80;;;;;;5095893;28;20287;-79
2023/03/28 10:55:57;;;;;;;5.87;2.20;;;9.30;92.20;;;;;;5095917;28;20782;-80
2023/03/28 10:58:48;;;;;;;7.87;3.10;;;9.40;92.70;;;;;;5095680;28;20278;-80
2023/03/28 11:01:19;;;;;;;7.37;1.80;;;9.40;91.70;;;;;;5095890;28;20796;-80
2023/03/28 11:04:10;;;;;;;8.53;2.57;;;9.40;92.00;;;;;;5095861;28;20316;-80
2023/03/28 11:06:41;;;;;;;8.13;2.33;;;9.40;91.40;;;;;;5094864;28;20294;-80
2023/03/28 11:09:13;;;;;;;8.20;2.30;;;9.40;92.10;;;;;;5095646;28;20278;-80
2023/03/28 11:11:57;;;;;;;9.00;2.53;;;9.50;92.40;;;;;;5095804;28;20301;-80
2023/03/28 11:14:49;;;;;;;6.60;2.37;;;9.50;90.90;;;;;;5095220;28;20386;-80
2023/03/28 11:17:41;;;;;;;6.87;2.07;;;9.50;91.20;;;;;;5082396;28;20297;-79
2023/03/28 11:20:21;;;;;;;7.27;2.27;;;9.50;91.70;;;;;;5094589;28;20863;-84
2023/03/28 11:23:15;;;;;;;8.13;2.73;;;9.40;91.50;;;;;;5094558;28;20282;-79
2023/03/28 11:25:49;;;;;;;10.00;2.13;;;9.50;91.40;;;;;;5095172;28;20789;-81
2023/03/28 11:28:29;;;;;;;7.63;2.33;;;9.50;91.40;;;;;;5095203;28;20293;-81
2023/03/28 11:30:57;;;;;;;6.57;2.10;;;9.50;90.60;;;;;;5095441;28;20279;-79
2023/03/28 11:33:25;;;;;;;7.47;2.30;;;9.60;91.10;;;;;;5095029;28;20328;-79
2023/03/28 11:36:02;;;;;;;6.13;1.93;;;9.60;91.00;;;;;;5095351;28;20278;-80
2023/03/28 11:38:47;;;;;;;7.43;2.37;;;9.60;90.00;;;;;;5095079;28;20271;-78
2023/03/28 11:41:18;;;;;;;8.48;2.60;;;9.70;89.90;;;;;;5095004;28;20269;-78
2023/03/28 11:43:59;;;;;;;6.67;2.20;;;9.70;88.20;;;;;;5095149;28;20047;-79
2023/03/28 11:46:52;;;;;;;8.90;2.50;;;9.70;88.50;;;;;;5093971;28;20282;-83
2023/03/28 11:49:25;;;;;;;10.30;2.40;;;9.60;88.50;;;;;;5093962;28;20286;-82
2023/03/28 11:52:14;;;;;;;6.43;2.03;;;9.60;89.30;;;;;;5094906;28;20294;-80
2023/03/28 11:55:17;;;;;;;8.00;2.27;;;9.70;89.40;;;;;;5095722;28;20286;-84
2023/03/28 11:57:54;;;;;;;6.17;2.40;;;9.70;88.60;;;;;;5094865;28;20777;-82
2023/03/28 12:00:38;;;;;;;7.93;2.40;;;9.70;88.10;;;;;;5094224;28;20789;-81
2023/03/28 12:03:21;;;;;;;8.57;2.57;;;9.70;86.80;;;;;;5093721;28;20633;-82
2023/03/28 12:05:56;;;;;;;7.67;2.30;;;9.70;87.40;;;;;;5094975;28;20278;-83
2023/03/28 12:08:44;;;;;;;7.33;3.13;;;9.70;87.40;;;;;;5094539;28;20278;-82
2023/03/28 12:11:17;;;;;;;9.70;2.57;;;9.70;87.40;;;;;;5093323;28;20406;-83
2023/03/28 12:13:56;;;;;;;10.10;2.50;;;9.60;87.10;;;;;;5094493;28;20277;-83
2023/03/28 12:16:42;;;;;;;7.83;2.33;;;9.50;86.00;;;;;;5094340;28;20278;-84
2023/03/28 12:19:12;;;;;;;7.10;2.60;;;9.60;87.80;;;;;;5093475;28;20325;-84
2023/03/28 12:21:42;;;;;;;7.63;2.70;;;9.60;86.90;;;;;;5094113;28;20487;-84
2023/03/28 12:24:24;;;;;;;6.17;2.27;;;9.70;87.20;;;;;;5094600;28;20286;-84
2023/03/28 12:27:24;;;;;;;9.53;2.93;;;9.60;85.80;;;;;;5094255;28;20339;-83
2023/03/28 12:30:01;;;;;;;7.50;2.60;;;9.70;85.20;;;;;;5094481;28;20743;-84
2023/03/28 12:32:47;;;;;;;6.00;2.50;;;9.70;85.00;;;;;;5094016;28;20796;-79
2023/03/28 12:35:21;;;;;;;7.70;2.83;;;9.70;84.70;;;;;;5094730;28;20289;-85
2023/03/28 12:38:05;;;;;;;8.05;2.33;;;9.60;84.40;;;;;;5093303;28;20047;-86
2023/03/28 12:40:54;;;;;;;8.43;2.30;;;9.60;83.00;;;;;;5092822;28;20048;-84
2023/03/28 12:43:57;;;;;;;9.50;2.73;;;9.60;84.40;;;;;;5094007;28;20279;-81
2023/03/28 12:46:35;;;;;;;7.23;2.40;;;9.70;83.30;;;;;;5094074;28;20271;-86
2023/03/28 12:49:07;;;;;;;8.53;2.90;;;9.70;82.70;;;;;;5076336;28;20293;-83
2023/03/28 12:51:43;;;;;;;9.30;2.67;;;9.70;83.40;;;;;;5092241;28;20305;-81
2023/03/28 12:54:08;;;;;;;;;;;9.70;83.00;;;;;;5094206;28;20404;-83
2023/03/28 12:56:34;;;;;;;5.60;2.30;;;9.70;83.00;;;;;;5092583;28;20014;-84
2023/03/28 12:59:15;;;;;;;7.70;2.60;;;9.70;83.50;;;;;;5092474;28;20048;-84
2023/03/28 13:01:50;;;;;;;7.77;2.43;;;9.70;82.70;;;;;;5093423;28;20274;-84
2023/03/28 13:04:37;;;;;;;7.93;2.87;;;9.70;81.20;;;;;;5093570;28;20270;-84
2023/03/28 13:07:13;;;;;;;6.50;2.60;;;9.70;80.70;;;;;;5093612;28;20278;-85
2023/03/28 13:09:54;;;;;;;7.40;3.00;;;9.70;81.60;;;;;;5092188;28;20278;-85
2023/03/28 13:12:35;;;;;;;8.53;3.00;;;9.70;82.20;;;;;;5092559;28;20305;-84
2023/03/28 13:15:26;;;;;;;8.03;2.60;;;9.70;81.20;;;;;;5093155;28;20801;-83
2023/03/28 13:18:16;;;;;;;8.30;2.33;;;9.70;78.80;;;;;;5092768;28;20286;-85